Lake Katrine, New York
Current Conditions -  °F | °C
As of 12:53 PM on Friday 28 Nov 2014 (Local Time) from KPOU Reporting Station
Broken Clouds Broken Clouds  
Wind Chill: 28°   Ceiling: 4800
Heat Index: 35°   Visibility: 10mi
Dew Point: 20°   Wind: 9mph
Humidity: 54%   Direction: 270°W
Pressure: 30.13"   Gusts: NA
Location:  41.98°N, 73.99°W
Report Text: KPOU 281753Z 27008KT 10SM SCT040 BKN048 02/M07 A3013 RMK AO2 SLP203 I6000 T00171067 10022 21067 56014
Loading
Personal Weather Stations






























Interactive Weather Map New forecast layout! Learn more

10-Day Weather Forecast

Advertisements
Track Severe Weather on mobile